Time;durP1;ratioP1;P1;durP2;ratioP2;P2;SDS_P1;SDS_P2;PMS_P1;PMS_P2;Temp;Humidity;BMP_temperature;BMP_pressure;BME280_temperature;BME280_humidity;BME280_pressure;Samples;Min_cycle;Max_cycle;Signal;HPM_P1;HPM_P2
2023/01/14 00:00:20;;;;;;;13.20;8.00;;;;;;;;;;6246231;23;20008;-70
2023/01/14 00:02:46;;;;;;;14.00;8.10;;;;;;;;;;6246364;23;20000;-70
2023/01/14 00:05:12;;;;;;;8.30;5.87;;;;;;;;;;6245822;23;20000;-70
2023/01/14 00:07:38;;;;;;;9.50;5.70;;;;;;;;;;6245748;23;20000;-70
2023/01/14 00:10:04;;;;;;;9.40;4.93;;;;;;;;;;6246282;23;20012;-69
2023/01/14 00:12:31;;;;;;;7.53;4.70;;;;;;;;;;6246457;23;20395;-70
2023/01/14 00:14:57;;;;;;;5.10;3.70;;;;;;;;;;6246871;23;20011;-70
2023/01/14 00:17:24;;;;;;;6.77;4.20;;;;;;;;;;6246086;23;20000;-71
2023/01/14 00:19:50;;;;;;;3.67;2.20;;;;;;;;;;6245793;23;20000;-70
2023/01/14 00:22:16;;;;;;;5.80;3.53;;;;;;;;;;6246511;23;20002;-70
2023/01/14 00:24:42;;;;;;;6.57;3.77;;;;;;;;;;6245991;23;20335;-70
2023/01/14 00:27:08;;;;;;;5.57;3.43;;;;;;;;;;6244222;23;20343;-69
2023/01/14 00:29:35;;;;;;;7.67;4.40;;;;;;;;;;6246121;23;20023;-70
2023/01/14 00:32:04;;;;;;;5.67;3.83;;;;;;;;;;6246254;23;20331;-70
2023/01/14 00:34:31;;;;;;;4.77;3.40;;;;;;;;;;6246226;23;20000;-69
2023/01/14 00:36:57;;;;;;;4.40;2.80;;;;;;;;;;6245953;23;20031;-69
2023/01/14 00:39:23;;;;;;;4.50;2.70;;;;;;;;;;6246222;23;20004;-70
2023/01/14 00:41:50;;;;;;;5.13;2.87;;;;;;;;;;6246220;23;20000;-69
2023/01/14 00:44:17;;;;;;;5.40;2.63;;;;;;;;;;6246517;23;20004;-70
2023/01/14 00:46:43;;;;;;;4.60;2.87;;;;;;;;;;6246275;23;20000;-70
2023/01/14 00:49:15;;;;;;;4.97;3.60;;;;;;;;;;6246042;23;20007;-70
2023/01/14 00:51:41;;;;;;;9.03;3.40;;;;;;;;;;6246214;23;20004;-70
2023/01/14 00:54:07;;;;;;;6.00;4.67;;;;;;;;;;6246039;23;20058;-69
2023/01/14 00:56:33;;;;;;;5.97;4.50;;;;;;;;;;6246325;23;20004;-69
2023/01/14 00:58:59;;;;;;;8.00;3.97;;;;;;;;;;6245895;23;20359;-69
2023/01/14 01:01:25;;;;;;;9.63;3.57;;;;;;;;;;6246142;23;20000;-69
2023/01/14 01:03:53;;;;;;;8.00;4.63;;;;;;;;;;6246043;23;20007;-69
2023/01/14 01:06:19;;;;;;;4.03;2.90;;;;;;;;;;6244202;23;20004;-69
2023/01/14 01:08:45;;;;;;;5.53;3.00;;;;;;;;;;6218986;23;20107;-70
2023/01/14 01:11:12;;;;;;;4.33;2.93;;;;;;;;;;6245708;23;20008;-70
2023/01/14 01:13:38;;;;;;;5.83;3.97;;;;;;;;;;6246121;23;20043;-70
2023/01/14 01:16:15;;;;;;;9.63;5.83;;;;;;;;;;6245686;23;20004;-70
2023/01/14 01:18:41;;;;;;;6.37;4.10;;;;;;;;;;6245256;23;20000;-69
2023/01/14 01:21:08;;;;;;;5.60;3.80;;;;;;;;;;6245332;23;20078;-70
2023/01/14 01:23:35;;;;;;;8.87;3.43;;;;;;;;;;6245541;23;20001;-70
2023/01/14 01:26:05;;;;;;;8.27;3.13;;;;;;;;;;6245568;23;20004;-70
2023/01/14 01:28:32;;;;;;;6.17;3.30;;;;;;;;;;6244875;23;20079;-70
2023/01/14 01:31:05;;;;;;;6.20;4.23;;;;;;;;;;6245378;23;20012;-70
2023/01/14 01:33:31;;;;;;;9.10;6.43;;;;;;;;;;6245620;23;20005;-69
2023/01/14 01:35:58;;;;;;;11.30;7.53;;;;;;;;;;6245797;23;20000;-69
2023/01/14 01:38:24;;;;;;;8.13;4.73;;;;;;;;;;6245461;23;20031;-69
2023/01/14 01:40:50;;;;;;;5.77;4.00;;;;;;;;;;6245474;23;20000;-70
2023/01/14 01:43:17;;;;;;;6.90;3.87;;;;;;;;;;6245348;23;20049;-70
2023/01/14 01:45:45;;;;;;;5.43;3.40;;;;;;;;;;6243884;23;20011;-70
2023/01/14 01:48:16;;;;;;;6.73;4.23;;;;;;;;;;6245797;23;20000;-70
2023/01/14 01:50:43;;;;;;;4.63;3.37;;;;;;;;;;6245028;23;20435;-70
2023/01/14 01:53:09;;;;;;;5.10;3.63;;;;;;;;;;6245191;23;20079;-70
2023/01/14 01:55:37;;;;;;;4.80;3.60;;;;;;;;;;6245179;23;20001;-70
2023/01/14 01:58:04;;;;;;;5.87;3.70;;;;;;;;;;6243716;23;20004;-70
2023/01/14 02:00:30;;;;;;;5.93;3.73;;;;;;;;;;6242343;23;20011;-70
2023/01/14 02:03:05;;;;;;;6.10;3.60;;;;;;;;;;6241982;23;20008;-70
2023/01/14 02:05:31;;;;;;;6.23;4.23;;;;;;;;;;6244157;23;20000;-70
2023/01/14 02:07:58;;;;;;;6.50;4.50;;;;;;;;;;6245849;23;20407;-69
2023/01/14 02:10:28;;;;;;;5.63;3.87;;;;;;;;;;6245263;23;20019;-71
2023/01/14 02:13:03;;;;;;;14.20;8.57;;;;;;;;;;6244769;23;20028;-70
2023/01/14 02:15:35;;;;;;;22.83;13.53;;;;;;;;;;6245299;23;20012;-70
2023/01/14 02:18:21;;;;;;;32.00;17.25;;;;;;;;;;6245162;23;20058;-70
2023/01/14 02:20:53;;;;;;;32.37;18.73;;;;;;;;;;6228640;23;20004;-70
2023/01/14 02:23:37;;;;;;;25.70;15.50;;;;;;;;;;6217939;23;20473;-69
2023/01/14 02:26:23;;;;;;;20.80;12.90;;;;;;;;;;6244799;23;20431;-69
2023/01/14 02:29:03;;;;;;;24.03;15.97;;;;;;;;;;6244468;23;20004;-69
2023/01/14 02:31:36;;;;;;;11.67;7.90;;;;;;;;;;6245147;23;20071;-68
2023/01/14 02:34:06;;;;;;;13.23;9.20;;;;;;;;;;6245106;23;20012;-69
2023/01/14 02:36:34;;;;;;;13.17;8.70;;;;;;;;;;6244637;23;20011;-70
2023/01/14 02:39:03;;;;;;;17.00;7.60;;;;;;;;;;6244965;23;20011;-68
2023/01/14 02:44:28;;;;;;;10.27;6.47;;;;;;;;;;6244516;23;20058;-70
2023/01/14 02:46:55;;;;;;;8.00;5.47;;;;;;;;;;6245117;23;20007;-70
2023/01/14 02:49:24;;;;;;;12.13;5.50;;;;;;;;;;6244767;23;20015;-70
2023/01/14 02:51:50;;;;;;;7.30;4.80;;;;;;;;;;6245280;23;20085;-70
2023/01/14 02:54:16;;;;;;;8.93;4.03;;;;;;;;;;6245233;23;20000;-70
2023/01/14 02:56:43;;;;;;;6.97;4.03;;;;;;;;;;6244868;23;20435;-70
2023/01/14 02:59:09;;;;;;;4.83;3.40;;;;;;;;;;6245179;23;20007;-70
2023/01/14 03:01:38;;;;;;;4.87;3.30;;;;;;;;;;6245171;23;20083;-70
2023/01/14 03:04:30;;;;;;;5.80;4.03;;;;;;;;;;6245080;23;20027;-70
2023/01/14 03:06:59;;;;;;;4.20;3.00;;;;;;;;;;6242724;23;20004;-70
2023/01/14 03:09:40;;;;;;;5.33;3.50;;;;;;;;;;6244941;23;20411;-69
2023/01/14 03:12:15;;;;;;;7.23;3.47;;;;;;;;;;6244949;23;20004;-69
2023/01/14 03:14:51;;;;;;;7.30;3.40;;;;;;;;;;6245269;23;20004;-70
2023/01/14 03:17:17;;;;;;;6.57;3.60;;;;;;;;;;6217889;23;20429;-69
2023/01/14 03:19:47;;;;;;;6.13;3.20;;;;;;;;;;6244885;23;20006;-69
2023/01/14 03:22:13;;;;;;;4.33;3.20;;;;;;;;;;6244580;23;20059;-69
2023/01/14 03:24:43;;;;;;;4.90;3.30;;;;;;;;;;6245248;23;20028;-70
2023/01/14 03:27:18;;;;;;;5.13;3.33;;;;;;;;;;6244873;23;20395;-70
2023/01/14 03:29:47;;;;;;;6.03;3.37;;;;;;;;;;6244847;23;20020;-70
2023/01/14 03:32:21;;;;;;;8.27;3.23;;;;;;;;;;6244358;23;20005;-70
2023/01/14 03:34:50;;;;;;;5.73;3.13;;;;;;;;;;6244687;23;20004;-70
2023/01/14 03:37:18;;;;;;;4.60;3.50;;;;;;;;;;6244614;23;19996;-70
2023/01/14 03:39:46;;;;;;;6.93;3.47;;;;;;;;;;6244816;23;20000;-69
2023/01/14 03:42:19;;;;;;;4.40;3.30;;;;;;;;;;6244374;23;20004;-70
2023/01/14 03:44:54;;;;;;;5.77;3.70;;;;;;;;;;6246851;23;20004;-70
2023/01/14 03:47:21;;;;;;;5.67;3.40;;;;;;;;;;6246752;23;20450;-69
2023/01/14 03:49:47;;;;;;;6.63;3.40;;;;;;;;;;6246151;23;20012;-70
2023/01/14 03:52:16;;;;;;;7.23;3.77;;;;;;;;;;6245905;23;20312;-70
2023/01/14 03:55:01;;;;;;;7.80;3.23;;;;;;;;;;6246747;23;20012;-70
2023/01/14 03:57:56;;;;;;;5.87;3.50;;;;;;;;;;6246307;23;20000;-70
2023/01/14 04:00:38;;;;;;;6.90;3.20;;;;;;;;;;6226761;23;20012;-69
2023/01/14 04:03:05;;;;;;;4.13;3.13;;;;;;;;;;6244814;23;20488;-70
2023/01/14 04:05:32;;;;;;;8.10;3.60;;;;;;;;;;6246334;23;20000;-70
2023/01/14 04:07:59;;;;;;;6.07;3.80;;;;;;;;;;6246538;23;20007;-69
2023/01/14 04:10:25;;;;;;;5.03;3.03;;;;;;;;;;6246059;23;20038;-69
2023/01/14 04:15:35;;;;;;;4.57;2.97;;;;;;;;;;6246618;23;20334;-69
2023/01/14 04:18:02;;;;;;;5.10;3.37;;;;;;;;;;6244711;23;20001;-70
2023/01/14 04:20:28;;;;;;;5.73;3.87;;;;;;;;;;6246599;23;20091;-69
2023/01/14 04:22:54;;;;;;;5.30;3.50;;;;;;;;;;6246646;23;19996;-70
2023/01/14 04:25:20;;;;;;;4.13;2.97;;;;;;;;;;6246634;23;20023;-70
2023/01/14 04:27:46;;;;;;;4.97;2.97;;;;;;;;;;6245998;23;20015;-70
2023/01/14 04:30:12;;;;;;;5.73;3.60;;;;;;;;;;6246283;23;20012;-69
2023/01/14 04:32:38;;;;;;;4.90;3.00;;;;;;;;;;6246362;23;20419;-69
2023/01/14 04:35:05;;;;;;;4.70;3.27;;;;;;;;;;6246454;23;20110;-70
2023/01/14 04:37:31;;;;;;;6.57;2.90;;;;;;;;;;6244213;23;20011;-69
2023/01/14 04:39:57;;;;;;;5.00;3.23;;;;;;;;;;6246129;23;20011;-69
2023/01/14 04:42:26;;;;;;;4.63;3.27;;;;;;;;;;6245815;23;20035;-70
2023/01/14 04:44:52;;;;;;;5.23;3.50;;;;;;;;;;6246229;23;20007;-70
2023/01/14 04:47:18;;;;;;;6.23;3.33;;;;;;;;;;6246220;23;20050;-69
2023/01/14 04:49:44;;;;;;;4.20;3.07;;;;;;;;;;6245880;23;20099;-70
2023/01/14 04:52:10;;;;;;;5.13;3.17;;;;;;;;;;6245851;23;19996;-69
2023/01/14 04:54:36;;;;;;;6.53;3.80;;;;;;;;;;6245620;23;20008;-69
2023/01/14 04:57:03;;;;;;;5.33;3.13;;;;;;;;;;6245504;23;19996;-69
2023/01/14 04:59:29;;;;;;;6.97;3.33;;;;;;;;;;6244165;23;20008;-70
2023/01/14 05:01:55;;;;;;;6.47;4.07;;;;;;;;;;6246094;23;19996;-70
2023/01/14 05:04:21;;;;;;;6.37;3.43;;;;;;;;;;6245761;23;20426;-69
2023/01/14 05:06:47;;;;;;;7.77;3.30;;;;;;;;;;6245698;23;20003;-69
2023/01/14 05:09:13;;;;;;;5.03;3.27;;;;;;;;;;6245572;23;20007;-68
2023/01/14 05:11:40;;;;;;;4.43;3.20;;;;;;;;;;6245663;23;20007;-68
2023/01/14 05:14:06;;;;;;;8.20;3.93;;;;;;;;;;6246266;23;19996;-68
2023/01/14 05:16:32;;;;;;;4.17;3.07;;;;;;;;;;6245873;23;20011;-69
2023/01/14 05:18:58;;;;;;;5.27;3.80;;;;;;;;;;6246115;23;20004;-68
2023/01/14 05:21:24;;;;;;;7.10;3.50;;;;;;;;;;6246016;23;20050;-69
2023/01/14 05:23:50;;;;;;;4.83;3.20;;;;;;;;;;6245902;23;20004;-69
2023/01/14 05:26:17;;;;;;;5.63;3.53;;;;;;;;;;6245472;23;20431;-69
2023/01/14 05:28:43;;;;;;;10.23;3.80;;;;;;;;;;6245644;23;20005;-69
2023/01/14 05:31:09;;;;;;;4.70;3.27;;;;;;;;;;6245620;23;20028;-68
2023/01/14 05:33:35;;;;;;;8.40;3.60;;;;;;;;;;6245278;23;20358;-69
2023/01/14 05:36:01;;;;;;;6.97;3.57;;;;;;;;;;6245355;23;20004;-70
2023/01/14 05:38:28;;;;;;;4.77;3.30;;;;;;;;;;6245793;23;20007;-69
2023/01/14 05:40:54;;;;;;;4.60;2.87;;;;;;;;;;6245650;23;20007;-70
2023/01/14 05:46:07;;;;;;;5.27;3.40;;;;;;;;;;6245699;23;20012;-69
2023/01/14 05:48:33;;;;;;;7.07;3.63;;;;;;;;;;6245259;23;20011;-69
2023/01/14 05:51:00;;;;;;;6.67;4.00;;;;;;;;;;6244974;23;20488;-69
2023/01/14 05:53:27;;;;;;;9.47;4.80;;;;;;;;;;6244897;23;20308;-70
2023/01/14 05:55:53;;;;;;;6.83;3.90;;;;;;;;;;6245140;23;20443;-69
2023/01/14 05:58:20;;;;;;;7.30;3.87;;;;;;;;;;6245528;23;19996;-70
2023/01/14 06:06:29;;;;;;;26.43;22.67;;;;;;;;;;6244542;23;20055;-70
2023/01/14 06:08:56;;;;;;;10.50;8.00;;;;;;;;;;6245527;23;20053;-70
2023/01/14 06:11:22;;;;;;;8.80;6.00;;;;;;;;;;6245884;23;20000;-70
2023/01/14 06:13:49;;;;;;;12.37;10.83;;;;;;;;;;6245747;23;20026;-70
2023/01/14 06:16:16;;;;;;;12.23;7.90;;;;;;;;;;6245524;23;19996;-69
2023/01/14 06:18:42;;;;;;;5.90;3.63;;;;;;;;;;6245205;23;20006;-69
2023/01/14 06:21:31;;;;;;;6.47;3.63;;;;;;;;;;6244422;23;19996;-69
2023/01/14 06:23:57;;;;;;;4.00;3.27;;;;;;;;;;6233254;23;20154;-70
2023/01/14 06:26:27;;;;;;;4.20;3.20;;;;;;;;;;6245056;23;20012;-69
2023/01/14 06:29:00;;;;;;;4.50;2.90;;;;;;;;;;6245530;23;20003;-70
2023/01/14 06:31:26;;;;;;;5.57;2.70;;;;;;;;;;6245121;23;20000;-70
2023/01/14 06:33:52;;;;;;;7.70;2.93;;;;;;;;;;6245196;23;20335;-70
2023/01/14 06:36:18;;;;;;;6.23;3.40;;;;;;;;;;6245374;23;20030;-69
2023/01/14 06:38:45;;;;;;;4.80;3.33;;;;;;;;;;6245738;23;20498;-70
2023/01/14 06:41:11;;;;;;;5.27;3.37;;;;;;;;;;6245064;23;20004;-69
2023/01/14 06:43:40;;;;;;;7.67;3.20;;;;;;;;;;6245265;23;19996;-70
2023/01/14 06:46:06;;;;;;;6.50;2.70;;;;;;;;;;6245156;23;20004;-69
2023/01/14 06:48:32;;;;;;;5.87;2.87;;;;;;;;;;6245430;23;20000;-69
2023/01/14 06:51:02;;;;;;;4.03;2.43;;;;;;;;;;6244889;23;20008;-70
2023/01/14 06:53:28;;;;;;;5.10;3.10;;;;;;;;;;6244699;23;19996;-69
2023/01/14 06:55:54;;;;;;;5.33;2.90;;;;;;;;;;6245012;23;20079;-69
2023/01/14 06:58:20;;;;;;;5.20;3.10;;;;;;;;;;6244726;23;20032;-69
2023/01/14 07:00:46;;;;;;;5.70;3.37;;;;;;;;;;6245148;23;20307;-69
2023/01/14 07:03:12;;;;;;;6.20;3.40;;;;;;;;;;6244575;23;20471;-69
2023/01/14 07:05:39;;;;;;;7.20;3.23;;;;;;;;;;6244726;23;20441;-70
2023/01/14 07:08:05;;;;;;;6.97;3.17;;;;;;;;;;6244485;23;20438;-68
2023/01/14 07:10:31;;;;;;;8.10;3.23;;;;;;;;;;6242767;23;20044;-68
2023/01/14 07:12:57;;;;;;;6.23;3.33;;;;;;;;;;6244011;23;20004;-69
2023/01/14 07:15:23;;;;;;;5.83;3.63;;;;;;;;;;6244722;23;20000;-70
2023/01/14 07:17:50;;;;;;;9.13;5.07;;;;;;;;;;6219369;23;20083;-69
2023/01/14 07:20:16;;;;;;;13.30;4.73;;;;;;;;;;6246391;23;20000;-69
2023/01/14 07:22:42;;;;;;;10.97;4.60;;;;;;;;;;6246308;23;20000;-70
2023/01/14 07:25:08;;;;;;;10.17;4.97;;;;;;;;;;6245928;23;20374;-69
2023/01/14 07:27:35;;;;;;;12.53;6.00;;;;;;;;;;6246820;23;20512;-69
2023/01/14 07:30:01;;;;;;;14.93;6.20;;;;;;;;;;6244704;23;20145;-70
2023/01/14 07:32:27;;;;;;;11.57;6.80;;;;;;;;;;6176960;23;20066;-70
2023/01/14 07:34:53;;;;;;;14.60;7.20;;;;;;;;;;6219365;23;20010;-70
2023/01/14 07:37:19;;;;;;;13.23;7.13;;;;;;;;;;6246148;23;20327;-70
2023/01/14 07:39:45;;;;;;;13.13;7.70;;;;;;;;;;6246394;23;20050;-70
2023/01/14 07:42:11;;;;;;;14.93;8.03;;;;;;;;;;6246951;23;20035;-70
2023/01/14 07:44:37;;;;;;;12.83;7.50;;;;;;;;;;6246636;23;20003;-69
2023/01/14 07:47:03;;;;;;;13.20;7.47;;;;;;;;;;6246339;23;20027;-71
2023/01/14 07:49:29;;;;;;;13.57;7.60;;;;;;;;;;6246247;23;20000;-69
2023/01/14 07:51:55;;;;;;;14.03;8.53;;;;;;;;;;6246124;23;20004;-70
2023/01/14 07:54:21;;;;;;;17.57;9.00;;;;;;;;;;6246568;23;20090;-70
2023/01/14 07:56:47;;;;;;;16.47;8.37;;;;;;;;;;6246602;23;20085;-71
2023/01/14 07:59:13;;;;;;;13.43;8.10;;;;;;;;;;6246693;23;20220;-71
2023/01/14 08:01:40;;;;;;;16.87;7.97;;;;;;;;;;6246147;23;20308;-71
2023/01/14 08:04:06;;;;;;;13.80;8.20;;;;;;;;;;6246970;23;20095;-70
2023/01/14 08:06:32;;;;;;;12.70;7.77;;;;;;;;;;6246893;23;20020;-70
2023/01/14 08:09:01;;;;;;;16.20;8.30;;;;;;;;;;6246649;23;20065;-70
2023/01/14 08:11:28;;;;;;;15.43;8.27;;;;;;;;;;6246843;23;20043;-70
2023/01/14 08:13:54;;;;;;;15.97;8.07;;;;;;;;;;6246863;23;20011;-69
2023/01/14 08:16:21;;;;;;;13.20;7.60;;;;;;;;;;6246847;23;20004;-71
2023/01/14 08:18:48;;;;;;;12.60;7.20;;;;;;;;;;6246459;23;20030;-70
2023/01/14 08:21:14;;;;;;;14.37;7.10;;;;;;;;;;6245937;23;20005;-70
2023/01/14 08:23:40;;;;;;;15.97;7.00;;;;;;;;;;6245039;23;20026;-70
2023/01/14 08:26:07;;;;;;;18.17;7.53;;;;;;;;;;6245680;23;20075;-71
2023/01/14 08:28:34;;;;;;;12.93;6.37;;;;;;;;;;6245901;23;20099;-70
2023/01/14 08:31:08;;;;;;;11.23;5.37;;;;;;;;;;6246344;23;20039;-70
2023/01/14 08:33:34;;;;;;;8.40;5.10;;;;;;;;;;6246546;23;20028;-71
2023/01/14 08:36:10;;;;;;;8.37;5.13;;;;;;;;;;6246801;23;20007;-70
2023/01/14 08:38:38;;;;;;;10.57;5.57;;;;;;;;;;6246670;23;19996;-71
2023/01/14 08:41:08;;;;;;;10.57;6.50;;;;;;;;;;6246481;23;20008;-70
2023/01/14 08:43:34;;;;;;;10.63;6.10;;;;;;;;;;6219625;23;20088;-70
2023/01/14 08:46:01;;;;;;;9.00;5.83;;;;;;;;;;6244410;23;20007;-70
2023/01/14 08:48:27;;;;;;;13.10;5.73;;;;;;;;;;6241392;23;20008;-70
2023/01/14 08:50:53;;;;;;;7.37;5.37;;;;;;;;;;6242220;23;20040;-71
2023/01/14 08:53:19;;;;;;;5.50;4.10;;;;;;;;;;6241425;23;20071;-70
2023/01/14 08:55:45;;;;;;;6.80;3.60;;;;;;;;;;6242200;23;20004;-70
2023/01/14 08:58:13;;;;;;;6.90;3.07;;;;;;;;;;6242364;23;20045;-70
2023/01/14 09:00:39;;;;;;;4.57;2.70;;;;;;;;;;6245493;23;20004;-70
2023/01/14 09:03:05;;;;;;;9.10;2.87;;;;;;;;;;6245693;23;20004;-70
2023/01/14 09:05:32;;;;;;;4.70;2.77;;;;;;;;;;6245648;23;20423;-70
2023/01/14 09:18:59;;;;;;;4.27;2.70;;;;;;;;;;6242103;23;20015;-70
2023/01/14 09:21:25;;;;;;;4.20;2.13;;;;;;;;;;6243591;23;20000;-70
2023/01/14 09:23:51;;;;;;;3.97;2.23;;;;;;;;;;6245463;23;19996;-70
2023/01/14 09:26:20;;;;;;;4.30;2.23;;;;;;;;;;6245610;23;20007;-70
2023/01/14 09:28:46;;;;;;;4.43;2.10;;;;;;;;;;6245956;23;20000;-71
2023/01/14 09:31:12;;;;;;;4.70;2.23;;;;;;;;;;6245978;23;20008;-71
2023/01/14 09:33:38;;;;;;;4.10;2.13;;;;;;;;;;6246091;23;20001;-70
2023/01/14 09:36:05;;;;;;;3.20;2.10;;;;;;;;;;6245688;23;20000;-70
2023/01/14 09:38:31;;;;;;;16.60;3.70;;;;;;;;;;6245817;23;20023;-70
2023/01/14 09:40:57;;;;;;;5.07;3.00;;;;;;;;;;6245188;23;20027;-70
2023/01/14 09:43:23;;;;;;;5.73;2.90;;;;;;;;;;6243639;23;20379;-70
2023/01/14 09:45:52;;;;;;;7.77;3.60;;;;;;;;;;6242346;23;20326;-70
2023/01/14 09:48:20;;;;;;;6.93;3.27;;;;;;;;;;6242566;23;20004;-70
2023/01/14 09:51:01;;;;;;;7.87;3.67;;;;;;;;;;6244908;23;20012;-70
2023/01/14 09:53:46;;;;;;;5.93;3.27;;;;;;;;;;6245396;23;20103;-71
2023/01/14 09:56:38;;;;;;;6.80;2.90;;;;;;;;;;6245079;23;20004;-70
2023/01/14 09:59:33;;;;;;;4.72;2.90;;;;;;;;;;6210017;23;20008;-71
2023/01/14 10:01:59;;;;;;;5.03;3.17;;;;;;;;;;6225768;23;20011;-70
2023/01/14 10:04:45;;;;;;;7.83;3.13;;;;;;;;;;6245553;23;20008;-70
2023/01/14 10:07:13;;;;;;;5.17;2.37;;;;;;;;;;6245555;23;20077;-70
2023/01/14 10:09:42;;;;;;;3.67;2.40;;;;;;;;;;6245450;23;20012;-70
2023/01/14 10:12:12;;;;;;;6.30;2.30;;;;;;;;;;6245878;23;20004;-70
2023/01/14 10:14:46;;;;;;;5.90;2.27;;;;;;;;;;6244869;23;20005;-70
2023/01/14 10:17:16;;;;;;;3.10;2.00;;;;;;;;;;6245356;23;19996;-72
2023/01/14 10:19:47;;;;;;;3.57;2.30;;;;;;;;;;6245373;23;20071;-71
2023/01/14 10:22:24;;;;;;;3.23;1.90;;;;;;;;;;6245258;23;20154;-72
2023/01/14 10:24:50;;;;;;;3.80;1.90;;;;;;;;;;6245257;23;20000;-72
2023/01/14 10:27:18;;;;;;;4.10;1.83;;;;;;;;;;6245295;23;20039;-72
2023/01/14 10:29:45;;;;;;;4.17;1.90;;;;;;;;;;6244923;23;20024;-72
2023/01/14 10:32:13;;;;;;;6.30;2.10;;;;;;;;;;6245134;23;20079;-72
2023/01/14 10:34:39;;;;;;;3.47;2.10;;;;;;;;;;6245063;23;20008;-72
2023/01/14 10:37:09;;;;;;;6.73;1.90;;;;;;;;;;6245431;23;20376;-73
2023/01/14 10:39:35;;;;;;;4.93;1.80;;;;;;;;;;6245411;23;20439;-72
2023/01/14 10:42:03;;;;;;;4.37;2.20;;;;;;;;;;6245059;23;20122;-72
2023/01/14 10:44:30;;;;;;;3.00;1.87;;;;;;;;;;6245142;23;20011;-72
2023/01/14 10:47:24;;;;;;;3.20;1.63;;;;;;;;;;6245677;23;20000;-72
2023/01/14 10:50:08;;;;;;;4.10;1.60;;;;;;;;;;6241698;23;20012;-74
2023/01/14 10:52:34;;;;;;;3.37;1.90;;;;;;;;;;6245862;23;20439;-73
2023/01/14 10:55:12;;;;;;;2.57;1.30;;;;;;;;;;6247187;23;20004;-73
2023/01/14 10:57:44;;;;;;;2.10;1.08;;;;;;;;;;6247180;23;20054;-73
2023/01/14 11:00:27;;;;;;;2.25;1.45;;;;;;;;;;6245829;23;20035;-72
2023/01/14 11:02:53;;;;;;;3.03;1.60;;;;;;;;;;6247254;23;20083;-72
2023/01/14 11:05:26;;;;;;;4.00;1.52;;;;;;;;;;6247080;23;20004;-71
2023/01/14 11:07:53;;;;;;;2.30;1.33;;;;;;;;;;6247568;23;20000;-72
2023/01/14 11:10:20;;;;;;;1.73;1.20;;;;;;;;;;6247014;23;20016;-71
2023/01/14 11:12:46;;;;;;;1.50;1.00;;;;;;;;;;6247031;23;19996;-71
2023/01/14 11:15:33;;;;;;;4.07;1.50;;;;;;;;;;6246981;23;20011;-72
2023/01/14 11:18:16;;;;;;;2.88;1.30;;;;;;;;;;6246971;23;20058;-72
2023/01/14 11:20:42;;;;;;;1.83;1.10;;;;;;;;;;6246805;23;20042;-72
2023/01/14 11:23:13;;;;;;;3.53;1.40;;;;;;;;;;6247104;23;20453;-72
2023/01/14 11:25:41;;;;;;;1.98;1.08;;;;;;;;;;6247180;23;20000;-72
2023/01/14 11:28:07;;;;;;;1.77;1.20;;;;;;;;;;6245188;23;20016;-73
2023/01/14 11:30:34;;;;;;;2.20;1.10;;;;;;;;;;6247003;23;20441;-71
2023/01/14 11:33:01;;;;;;;4.35;1.67;;;;;;;;;;6220221;23;20011;-73
2023/01/14 11:35:32;;;;;;;3.33;1.30;;;;;;;;;;6244062;23;20004;-73
2023/01/14 11:37:59;;;;;;;3.10;1.30;;;;;;;;;;6244961;23;20000;-73
2023/01/14 11:43:15;;;;;;;4.47;1.50;;;;;;;;;;6245642;23;20070;-74
2023/01/14 11:45:41;;;;;;;2.47;1.25;;;;;;;;;;6246759;23;20312;-74
2023/01/14 11:48:22;;;;;;;3.15;1.58;;;;;;;;;;6246775;23;20000;-72
2023/01/14 11:50:56;;;;;;;3.20;1.70;;;;;;;;;;6246504;23;20012;-73
2023/01/14 11:53:26;;;;;;;2.35;1.40;;;;;;;;;;6246413;23;20000;-73
2023/01/14 11:55:55;;;;;;;2.53;1.40;;;;;;;;;;6246916;23;20000;-73
2023/01/14 11:58:24;;;;;;;2.88;1.42;;;;;;;;;;6247074;23;19996;-73
2023/01/14 12:00:57;;;;;;;1.33;0.98;;;;;;;;;;6246872;23;20011;-73
2023/01/14 12:03:35;;;;;;;2.22;0.90;;;;;;;;;;6246190;23;20039;-73
2023/01/14 12:06:04;;;;;;;1.63;0.88;;;;;;;;;;6246706;23;20061;-73
2023/01/14 12:08:32;;;;;;;1.98;1.00;;;;;;;;;;6246540;23;20000;-73
2023/01/14 12:11:01;;;;;;;1.83;0.90;;;;;;;;;;6245596;23;20008;-73
2023/01/14 12:16:48;;;;;;;1.13;0.68;;;;;;;;;;6244991;23;20020;-72
2023/01/14 12:19:34;;;;;;;1.15;0.70;;;;;;;;;;6245565;23;20024;-73
2023/01/14 12:22:15;;;;;;;1.67;0.88;;;;;;;;;;6245130;23;19997;-73
2023/01/14 12:24:47;;;;;;;1.40;0.70;;;;;;;;;;6246962;23;20000;-73
2023/01/14 12:27:41;;;;;;;0.50;0.50;;;;;;;;;;6246440;23;20019;-74
2023/01/14 12:30:05;;;;;;;1.55;0.70;;;;;;;;;;6246044;23;20454;-73
2023/01/14 12:32:31;;;;;;;1.00;0.50;;;;;;;;;;6246252;23;20050;-73
2023/01/14 12:35:00;;;;;;;1.58;0.52;;;;;;;;;;6246496;23;20005;-73
2023/01/14 12:37:33;;;;;;;0.75;0.40;;;;;;;;;;6246966;23;20062;-74
2023/01/14 12:45:50;;;;;;;2.10;0.60;;;;;;;;;;6249051;23;20016;-73
2023/01/14 12:48:17;;;;;;;2.03;0.50;;;;;;;;;;6246914;23;20360;-73
2023/01/14 12:50:52;;;;;;;1.50;0.65;;;;;;;;;;6245978;23;20426;-74
2023/01/14 12:53:20;;;;;;;1.23;0.65;;;;;;;;;;6246779;23;20035;-73
2023/01/14 12:55:48;;;;;;;2.05;0.77;;;;;;;;;;6246017;23;20004;-72
2023/01/14 12:58:17;;;;;;;1.27;0.60;;;;;;;;;;6245916;23;20091;-73
2023/01/14 13:00:49;;;;;;;2.15;0.70;;;;;;;;;;6246292;23;20372;-73
2023/01/14 13:03:19;;;;;;;2.65;1.17;;;;;;;;;;6245775;23;20000;-73
2023/01/14 13:05:45;;;;;;;1.02;0.60;;;;;;;;;;6245938;23;20453;-72
2023/01/14 13:08:37;;;;;;;1.77;0.75;;;;;;;;;;6245991;23;20089;-73
2023/01/14 13:11:11;;;;;;;1.00;0.60;;;;;;;;;;6241952;23;20019;-73
2023/01/14 13:13:41;;;;;;;0.80;0.55;;;;;;;;;;6246013;23;20000;-72
2023/01/14 13:16:27;;;;;;;0.63;0.50;;;;;;;;;;6246154;23;19996;-73
2023/01/14 13:18:57;;;;;;;2.50;1.10;;;;;;;;;;6245824;23;20351;-71
2023/01/14 13:21:41;;;;;;;2.95;0.80;;;;;;;;;;6245989;23;20339;-74
2023/01/14 13:24:27;;;;;;;0.98;0.45;;;;;;;;;;6245894;23;20431;-73
2023/01/14 13:26:54;;;;;;;0.73;0.50;;;;;;;;;;6245984;23;20082;-73
2023/01/14 13:29:22;;;;;;;2.15;0.70;;;;;;;;;;6246086;23;20028;-73
2023/01/14 13:31:48;;;;;;;1.33;0.63;;;;;;;;;;6246113;23;20008;-73
2023/01/14 13:34:28;;;;;;;2.85;0.73;;;;;;;;;;6245999;23;20003;-73
2023/01/14 13:36:57;;;;;;;1.40;0.70;;;;;;;;;;6246033;23;20032;-72
2023/01/14 13:39:24;;;;;;;2.03;0.80;;;;;;;;;;6245964;23;20039;-73
2023/01/14 13:41:51;;;;;;;1.58;0.90;;;;;;;;;;6245776;23;20027;-73
2023/01/14 13:44:20;;;;;;;4.05;0.68;;;;;;;;;;6218968;23;20315;-73
2023/01/14 13:46:48;;;;;;;1.73;0.55;;;;;;;;;;6245790;23;20004;-73
2023/01/14 13:49:24;;;;;;;1.27;0.60;;;;;;;;;;6218983;23;20007;-73
2023/01/14 13:51:51;;;;;;;1.30;0.80;;;;;;;;;;6245852;23;19996;-73
2023/01/14 13:54:19;;;;;;;1.38;0.93;;;;;;;;;;6245363;23;20004;-73
2023/01/14 13:57:18;;;;;;;1.60;0.77;;;;;;;;;;6245467;23;19996;-73
2023/01/14 13:59:49;;;;;;;3.15;0.73;;;;;;;;;;6195435;23;20023;-74
2023/01/14 14:02:34;;;;;;;1.42;0.60;;;;;;;;;;6245522;23;20000;-74
2023/01/14 14:05:01;;;;;;;1.00;0.70;;;;;;;;;;6245501;23;20004;-74
2023/01/14 14:07:45;;;;;;;1.02;0.60;;;;;;;;;;6245606;23;20061;-75
2023/01/14 14:10:14;;;;;;;1.23;0.63;;;;;;;;;;6246024;23;20390;-74
2023/01/14 14:15:27;;;;;;;1.40;0.80;;;;;;;;;;6245461;23;20389;-74
2023/01/14 14:17:55;;;;;;;2.13;1.10;;;;;;;;;;6244808;23;20034;-72
2023/01/14 14:20:23;;;;;;;2.47;0.80;;;;;;;;;;6245598;23;20023;-74
2023/01/14 14:23:02;;;;;;;2.60;1.40;;;;;;;;;;6245276;23;20000;-74
2023/01/14 14:25:34;;;;;;;2.60;1.10;;;;;;;;;;6245764;23;20008;-74
2023/01/14 14:28:00;;;;;;;3.13;1.30;;;;;;;;;;6245277;23;20020;-74
2023/01/14 14:30:28;;;;;;;2.88;1.40;;;;;;;;;;6245095;23;20087;-72
2023/01/14 14:32:55;;;;;;;6.95;1.60;;;;;;;;;;6218689;23;20301;-74
2023/01/14 14:35:21;;;;;;;3.85;1.55;;;;;;;;;;6245587;23;20000;-73
2023/01/14 14:37:49;;;;;;;3.78;1.75;;;;;;;;;;6245245;23;20008;-74
2023/01/14 14:40:42;;;;;;;3.33;1.83;;;;;;;;;;6245240;23;20419;-74
2023/01/14 14:43:21;;;;;;;4.60;1.83;;;;;;;;;;6241593;23;20011;-74
2023/01/14 14:45:58;;;;;;;5.32;2.28;;;;;;;;;;6245581;23;20023;-73
2023/01/14 14:48:27;;;;;;;6.38;2.50;;;;;;;;;;6245145;23;20023;-73
2023/01/14 14:50:53;;;;;;;5.03;3.03;;;;;;;;;;6245529;23;20027;-75
2023/01/14 14:53:31;;;;;;;4.38;3.00;;;;;;;;;;6245449;23;19996;-74
2023/01/14 14:55:59;;;;;;;9.20;5.47;;;;;;;;;;6245269;23;19996;-74
2023/01/14 14:58:25;;;;;;;15.60;9.40;;;;;;;;;;6245539;23;20095;-74
2023/01/14 15:00:55;;;;;;;19.35;10.85;;;;;;;;;;6245265;23;20402;-74
2023/01/14 15:03:22;;;;;;;26.15;15.48;;;;;;;;;;6245211;23;20004;-73
2023/01/14 15:05:49;;;;;;;29.80;16.88;;;;;;;;;;6245062;23;20007;-74
2023/01/14 15:08:16;;;;;;;27.65;16.60;;;;;;;;;;6245104;23;20137;-74
2023/01/14 15:10:46;;;;;;;27.85;16.52;;;;;;;;;;6245308;23;20012;-75
2023/01/14 15:13:24;;;;;;;38.00;19.33;;;;;;;;;;6245029;23;20000;-75
2023/01/14 15:16:09;;;;;;;40.42;21.60;;;;;;;;;;6245104;23;20004;-75
2023/01/14 15:18:37;;;;;;;36.10;19.60;;;;;;;;;;6244629;23;20078;-73
2023/01/14 15:21:04;;;;;;;23.30;12.38;;;;;;;;;;6244377;23;20415;-74
2023/01/14 15:23:31;;;;;;;23.85;11.65;;;;;;;;;;6244901;23;20000;-74
2023/01/14 15:25:57;;;;;;;19.65;11.45;;;;;;;;;;6245227;23;20032;-74
2023/01/14 15:28:24;;;;;;;21.55;8.43;;;;;;;;;;6244641;23;20521;-74
2023/01/14 15:30:57;;;;;;;12.32;6.10;;;;;;;;;;6244741;23;20331;-73
2023/01/14 15:33:33;;;;;;;9.73;4.80;;;;;;;;;;6243878;23;20369;-75